createdAt,value
2023-05-04T00:01:07.438Z,10.4494
2023-05-04T00:02:15.533Z,10.4778
2023-05-04T00:03:23.811Z,10.4212
2023-05-04T00:04:31.673Z,10.4080
2023-05-04T00:05:39.755Z,10.3857
2023-05-04T00:06:47.746Z,10.4151
2023-05-04T00:07:56.019Z,10.4278
2023-05-04T00:09:03.892Z,10.4513
2023-05-04T00:10:11.813Z,10.4834
2023-05-04T00:11:19.931Z,10.4364
2023-05-04T00:12:27.979Z,10.2482
2023-05-04T00:13:36.120Z,10.1236
2023-05-04T00:14:44.222Z,10.0443
2023-05-04T00:15:52.309Z,10.1051
2023-05-04T00:17:00.456Z,10.1465
2023-05-04T00:18:08.466Z,10.1707
2023-05-04T00:19:16.499Z,10.1700
2023-05-04T00:20:24.751Z,9.9819
2023-05-04T00:21:32.586Z,10.0443
2023-05-04T00:22:40.757Z,10.0784
2023-05-04T00:23:48.720Z,10.1177
2023-05-04T00:24:56.660Z,10.1948
2023-05-04T00:26:04.731Z,10.1986
2023-05-04T00:27:12.785Z,10.2051
2023-05-04T00:28:21.035Z,10.2001
2023-05-04T00:29:29.083Z,10.1284
2023-05-04T00:30:37.176Z,10.1314
2023-05-04T00:31:45.271Z,9.9762
2023-05-04T00:32:53.274Z,9.8497
2023-05-04T00:34:01.366Z,9.8900
2023-05-04T00:35:09.401Z,10.0180
2023-05-04T00:36:17.465Z,10.0502
2023-05-04T00:37:25.551Z,10.0433
2023-05-04T00:38:33.654Z,10.0445
2023-05-04T00:39:41.575Z,10.1271
2023-05-04T00:40:49.603Z,10.1808
2023-05-04T00:41:57.657Z,10.1425
2023-05-04T00:43:05.839Z,10.1457
2023-05-04T00:44:13.941Z,10.1158
2023-05-04T00:45:22.049Z,10.1745
2023-05-04T00:46:30.131Z,10.2144
2023-05-04T00:47:38.145Z,10.1879
2023-05-04T00:48:46.195Z,10.2203
2023-05-04T00:49:54.358Z,10.2346
2023-05-04T00:51:02.384Z,10.2072
2023-05-04T00:52:10.374Z,10.2060
2023-05-04T00:53:18.487Z,10.1810
2023-05-04T00:54:26.411Z,10.2325
2023-05-04T00:55:34.442Z,10.1168
2023-05-04T00:56:42.545Z,10.1221
2023-05-04T00:57:50.942Z,10.1036
2023-05-04T00:58:58.795Z,10.1560
2023-05-04T01:00:07.114Z,10.0975
2023-05-04T01:01:15.071Z,10.0527
2023-05-04T01:02:23.096Z,9.9840
2023-05-04T01:03:31.066Z,9.9884
2023-05-04T01:04:39.112Z,9.9457
2023-05-04T01:05:47.169Z,9.9287
2023-05-04T01:06:55.260Z,9.8366
2023-05-04T01:08:03.359Z,9.8209
2023-05-04T01:09:11.246Z,9.8776
2023-05-04T01:10:19.322Z,9.7547
2023-05-04T01:11:27.351Z,9.6819
2023-05-04T01:12:35.643Z,9.7532
2023-05-04T01:13:43.788Z,9.8358
2023-05-04T01:14:51.707Z,9.7858
2023-05-04T01:15:59.734Z,9.7549
2023-05-04T01:17:07.870Z,9.6618
2023-05-04T01:18:15.920Z,9.6193
2023-05-04T01:19:24.026Z,9.5619
2023-05-04T01:20:32.205Z,9.4852
2023-05-04T01:21:40.072Z,9.5043
2023-05-04T01:22:48.134Z,9.5670
2023-05-04T01:23:56.089Z,9.5339
2023-05-04T01:25:04.239Z,9.5238
2023-05-04T01:26:12.190Z,9.4631
2023-05-04T01:27:20.391Z,9.5188
2023-05-04T01:28:28.472Z,9.5840
2023-05-04T01:29:36.689Z,9.5705
2023-05-04T01:30:44.720Z,9.6020
2023-05-04T01:31:52.705Z,9.4404
2023-05-04T01:33:00.758Z,9.4814
2023-05-04T01:34:08.793Z,9.4913
2023-05-04T01:35:16.871Z,9.5646
2023-05-04T01:36:24.970Z,9.5188
2023-05-04T01:37:33.101Z,9.3469
2023-05-04T01:38:40.898Z,9.2586
2023-05-04T01:39:48.967Z,9.2582
2023-05-04T01:40:57.028Z,9.1659
2023-05-04T01:42:05.245Z,9.3538
2023-05-04T01:43:13.286Z,9.4974
2023-05-04T01:44:21.333Z,9.4957
2023-05-04T01:45:29.537Z,9.4309
2023-05-04T01:46:37.636Z,9.5224
2023-05-04T01:47:45.586Z,9.4700
2023-05-04T01:48:53.579Z,9.4703
2023-05-04T01:50:01.925Z,9.5136
2023-05-04T01:51:09.700Z,9.5054
2023-05-04T01:52:17.728Z,9.4641
2023-05-04T01:53:25.711Z,9.3540
2023-05-04T01:54:33.754Z,9.3542
2023-05-04T01:55:41.816Z,9.2914
2023-05-04T01:56:49.980Z,9.3126
2023-05-04T01:57:58.064Z,9.4038
2023-05-04T01:59:06.096Z,9.4702
2023-05-04T02:00:14.196Z,9.4269
2023-05-04T02:01:22.451Z,9.4322
2023-05-04T02:02:30.452Z,9.4311
2023-05-04T02:03:38.608Z,9.3881
2023-05-04T02:04:46.537Z,9.2855
2023-05-04T02:05:54.500Z,9.2203
2023-05-04T02:07:02.558Z,9.3038
2023-05-04T02:08:10.479Z,9.2210
2023-05-04T02:09:18.552Z,9.2453
2023-05-04T02:10:26.626Z,9.0471
2023-05-04T02:11:34.802Z,8.9828
2023-05-04T02:12:43.027Z,9.0936
2023-05-04T02:13:50.912Z,9.1045
2023-05-04T02:14:58.983Z,9.2180
2023-05-04T02:16:07.157Z,9.3063
2023-05-04T02:17:15.237Z,9.1570
2023-05-04T02:18:23.173Z,9.0797
2023-05-04T02:19:31.239Z,9.1547
2023-05-04T02:20:39.274Z,9.1287
2023-05-04T02:21:47.470Z,9.1339
2023-05-04T02:22:55.313Z,8.9050
2023-05-04T02:24:03.351Z,8.8731
2023-05-04T02:25:11.431Z,9.0069
2023-05-04T02:26:19.616Z,9.0015
2023-05-04T02:27:27.808Z,8.8876
2023-05-04T02:28:35.906Z,8.8731
2023-05-04T02:29:44.043Z,8.9410
2023-05-04T02:30:51.938Z,9.0345
2023-05-04T02:32:00.176Z,9.0421
2023-05-04T02:33:08.290Z,9.1318
2023-05-04T02:34:16.365Z,9.0002
2023-05-04T02:35:24.187Z,8.8794
2023-05-04T02:36:32.251Z,8.8745
2023-05-04T02:37:40.165Z,8.9279
2023-05-04T02:38:48.256Z,8.7146
2023-05-04T02:39:56.276Z,8.7181
2023-05-04T02:41:04.493Z,8.8068
2023-05-04T02:42:12.584Z,8.8754
2023-05-04T02:43:20.618Z,8.7665
2023-05-04T02:44:28.728Z,8.7734
2023-05-04T02:45:37.014Z,8.9338
2023-05-04T02:46:44.996Z,8.9620
2023-05-04T02:47:53.024Z,8.9727
2023-05-04T02:49:00.915Z,8.9830
2023-05-04T02:50:09.191Z,9.1066
2023-05-04T02:51:17.036Z,9.1608
2023-05-04T02:52:24.974Z,9.1903
2023-05-04T02:53:33.029Z,8.9990
2023-05-04T02:54:41.078Z,8.8670
2023-05-04T02:55:49.437Z,8.7894
2023-05-04T02:56:57.553Z,8.8257
2023-05-04T02:58:05.390Z,8.8186
2023-05-04T02:59:13.545Z,8.7944
2023-05-04T03:00:21.540Z,8.8112
2023-05-04T03:01:29.651Z,8.6221
2023-05-04T03:02:37.668Z,8.6027
2023-05-04T03:03:45.730Z,8.5947
2023-05-04T03:04:53.761Z,8.7522
2023-05-04T03:06:01.812Z,8.7562
2023-05-04T03:07:09.766Z,8.6006
2023-05-04T03:08:17.811Z,8.7148
2023-05-04T03:09:25.865Z,8.7345
2023-05-04T03:10:34.106Z,8.6591
2023-05-04T03:11:42.133Z,8.5748
2023-05-04T03:12:50.328Z,8.5825
2023-05-04T03:13:58.246Z,8.6858
2023-05-04T03:15:06.299Z,8.7703
2023-05-04T03:16:14.372Z,8.8564
2023-05-04T03:17:22.394Z,8.9060
2023-05-04T03:18:51.558Z,8.8016
2023-05-04T03:19:57.865Z,8.7758
2023-05-04T03:21:05.900Z,8.6382
2023-05-04T03:22:13.968Z,8.5319
2023-05-04T03:23:22.276Z,8.3335
2023-05-04T03:24:30.255Z,8.2847
2023-05-04T03:25:38.223Z,8.4514
2023-05-04T03:26:46.331Z,8.5502
2023-05-04T03:27:54.409Z,8.4682
2023-05-04T03:29:02.495Z,8.4209
2023-05-04T03:30:10.561Z,8.5455
2023-05-04T03:31:18.714Z,8.5233
2023-05-04T03:32:26.732Z,8.5865
2023-05-04T03:33:34.710Z,8.5563
2023-05-04T03:34:42.684Z,8.5445
2023-05-04T03:35:50.681Z,8.4831
2023-05-04T03:36:58.743Z,8.3356
2023-05-04T03:38:06.956Z,8.2311
2023-05-04T03:39:15.118Z,8.3238
2023-05-04T03:40:23.266Z,8.4594
2023-05-04T03:41:31.115Z,8.5371
2023-05-04T03:42:39.175Z,8.6034
2023-05-04T03:43:47.272Z,8.6412
2023-05-04T03:44:55.298Z,8.5947
2023-05-04T03:46:03.610Z,8.5783
2023-05-04T03:47:11.441Z,8.5584
2023-05-04T03:48:19.494Z,8.4949
2023-05-04T03:49:27.428Z,8.3688
2023-05-04T03:50:35.475Z,8.2382
2023-05-04T03:51:43.584Z,8.2109
2023-05-04T03:52:51.717Z,8.2416
2023-05-04T03:53:59.780Z,8.2426
2023-05-04T03:55:07.948Z,8.1934
2023-05-04T03:56:15.964Z,8.2223
2023-05-04T03:57:24.037Z,8.2235
2023-05-04T03:58:32.069Z,8.2214
2023-05-04T03:59:40.069Z,8.1312
2023-05-04T04:00:48.156Z,8.1937
2023-05-04T04:01:56.321Z,8.2405
2023-05-04T04:03:04.417Z,8.2294
2023-05-04T04:04:12.227Z,8.2653
2023-05-04T04:05:20.230Z,8.2733
2023-05-04T04:06:28.352Z,8.2376
2023-05-04T04:07:36.520Z,8.1356
2023-05-04T04:08:44.504Z,8.0898
2023-05-04T04:09:52.547Z,8.0049
2023-05-04T04:11:00.741Z,7.9748
2023-05-04T04:12:08.802Z,7.9221
2023-05-04T04:13:16.879Z,7.9225
2023-05-04T04:14:24.862Z,7.9629
2023-05-04T04:15:32.945Z,7.9225
2023-05-04T04:16:41.027Z,7.9261
2023-05-04T04:17:49.138Z,7.9677
2023-05-04T04:18:57.227Z,8.0156
2023-05-04T04:20:05.191Z,8.0328
2023-05-04T04:21:13.098Z,8.0062
2023-05-04T04:22:21.170Z,7.9816
2023-05-04T04:23:29.401Z,7.9082
2023-05-04T04:24:37.413Z,7.9618
2023-05-04T04:25:45.451Z,7.9265
2023-05-04T04:26:53.474Z,7.9513
2023-05-04T04:28:01.709Z,8.0547
2023-05-04T04:29:09.663Z,7.9231
2023-05-04T04:30:17.648Z,7.9767
2023-05-04T04:31:25.808Z,8.0480
2023-05-04T04:32:33.878Z,7.9975
2023-05-04T04:33:41.898Z,8.0270
2023-05-04T04:34:49.842Z,8.0955
2023-05-04T04:35:57.886Z,8.1157
2023-05-04T04:37:05.948Z,8.1817
2023-05-04T04:38:14.137Z,8.2714
2023-05-04T04:39:22.306Z,8.2918
2023-05-04T04:40:30.241Z,8.1489
2023-05-04T04:41:38.330Z,8.2916
2023-05-04T04:42:46.521Z,8.3702
2023-05-04T04:43:54.390Z,8.3498
2023-05-04T04:45:02.530Z,8.4037
2023-05-04T04:46:10.630Z,8.4364
2023-05-04T04:47:18.643Z,8.4268
2023-05-04T04:48:26.643Z,8.4592
2023-05-04T04:49:34.644Z,8.5025
2023-05-04T04:50:42.714Z,8.5533
2023-05-04T04:51:50.786Z,8.5518
2023-05-04T04:52:58.907Z,8.4623
2023-05-04T04:54:07.068Z,8.2834
2023-05-04T04:55:15.035Z,8.3845
2023-05-04T04:56:23.050Z,8.3599
2023-05-04T04:57:31.903Z,8.2748
2023-05-04T04:58:39.402Z,8.3267
2023-05-04T04:59:47.273Z,8.3965
2023-05-04T05:00:55.443Z,8.4894
2023-05-04T05:02:03.368Z,8.5394
2023-05-04T05:03:11.520Z,8.6221
2023-05-04T05:04:19.480Z,8.6166
2023-05-04T05:05:28.054Z,8.6446
2023-05-04T05:06:35.558Z,8.6773
2023-05-04T05:07:43.741Z,8.7083
2023-05-04T05:08:51.796Z,8.7755
2023-05-04T05:09:59.881Z,8.6853
2023-05-04T05:11:07.941Z,8.7093
2023-05-04T05:12:15.985Z,8.7886
2023-05-04T05:13:24.065Z,8.7993
2023-05-04T05:14:32.253Z,8.8504
2023-05-04T05:15:40.162Z,8.9367
2023-05-04T05:16:48.233Z,8.7656
2023-05-04T05:17:56.293Z,8.9153
2023-05-04T05:19:04.247Z,8.9729
2023-05-04T05:20:12.348Z,8.9966
2023-05-04T05:21:20.355Z,9.0973
2023-05-04T05:22:28.442Z,9.1150
2023-05-04T05:23:36.566Z,9.0814
2023-05-04T05:24:44.788Z,9.1520
2023-05-04T05:25:52.670Z,9.2142
2023-05-04T05:27:00.875Z,9.2573
2023-05-04T05:28:08.855Z,9.3124
2023-05-04T05:29:16.893Z,9.3319
2023-05-04T05:30:25.023Z,9.3088
2023-05-04T05:31:33.222Z,9.3084
2023-05-04T05:32:41.060Z,9.3149
2023-05-04T05:33:49.179Z,9.3660
2023-05-04T05:34:57.145Z,9.3843
2023-05-04T05:36:05.174Z,9.3981
2023-05-04T05:37:13.226Z,9.4070
2023-05-04T05:38:21.404Z,9.4410
2023-05-04T05:39:29.422Z,9.2796
2023-05-04T05:40:37.619Z,9.2130
2023-05-04T05:41:45.561Z,9.3155
2023-05-04T05:42:53.608Z,9.1570
2023-05-04T05:44:01.650Z,9.1982
2023-05-04T05:45:09.900Z,9.1339
2023-05-04T05:46:17.793Z,9.1528
2023-05-04T05:47:25.963Z,9.3147
2023-05-04T05:48:34.062Z,9.3898
2023-05-04T05:49:42.991Z,9.4248
2023-05-04T05:50:54.802Z,9.5254
2023-05-04T05:52:02.961Z,9.5678
2023-05-04T05:53:11.150Z,9.6166
2023-05-04T05:54:19.050Z,9.5913
2023-05-04T05:55:27.146Z,9.6359
2023-05-04T05:56:35.192Z,9.7318
2023-05-04T05:57:43.216Z,9.7812
2023-05-04T05:58:51.270Z,9.8226
2023-05-04T05:59:59.383Z,9.7961
2023-05-04T06:01:07.458Z,9.8095
2023-05-04T06:02:15.479Z,9.7666
2023-05-04T06:03:23.499Z,9.7309
2023-05-04T06:04:31.547Z,9.7696
2023-05-04T06:05:39.608Z,9.8596
2023-05-04T06:06:47.751Z,9.9119
2023-05-04T06:07:55.875Z,10.0134
2023-05-04T06:09:03.803Z,9.9937
2023-05-04T06:10:11.930Z,10.1057
2023-05-04T06:11:20.002Z,10.1616
2023-05-04T06:12:28.153Z,10.0906
2023-05-04T06:13:36.026Z,9.9808
2023-05-04T06:14:44.082Z,10.0164
2023-05-04T06:15:52.167Z,10.0071
2023-05-04T06:17:00.238Z,10.0153
2023-05-04T06:18:08.247Z,10.0878
2023-05-04T06:19:16.256Z,10.0412
2023-05-04T06:20:24.307Z,9.9809
2023-05-04T06:21:32.424Z,9.9861
2023-05-04T06:22:40.632Z,9.9932
2023-05-04T06:23:48.594Z,10.0815
2023-05-04T06:25:01.584Z,10.1810
2023-05-04T06:26:09.567Z,10.1036
2023-05-04T06:27:17.693Z,10.2062
2023-05-04T06:28:25.731Z,10.1541
2023-05-04T06:29:33.701Z,10.2646
2023-05-04T06:30:41.916Z,10.3157
2023-05-04T06:31:49.781Z,10.2850
2023-05-04T06:32:57.923Z,10.3376
2023-05-04T06:34:05.830Z,10.2684
2023-05-04T06:35:13.922Z,10.1948
2023-05-04T06:36:22.145Z,10.2613
2023-05-04T06:37:30.332Z,10.2613
2023-05-04T06:38:39.199Z,10.2577
2023-05-04T06:39:46.287Z,10.3464
2023-05-04T06:40:54.356Z,10.3678
2023-05-04T06:42:02.409Z,10.2596
2023-05-04T06:43:10.530Z,10.4202
2023-05-04T06:44:18.623Z,10.4807
2023-05-04T06:45:26.651Z,10.4586
2023-05-04T06:46:34.572Z,10.3838
2023-05-04T06:47:42.662Z,10.4494
2023-05-04T06:48:50.718Z,10.5066
2023-05-04T06:49:58.860Z,10.5261
2023-05-04T06:51:06.968Z,10.6045
2023-05-04T06:52:14.975Z,10.6234
2023-05-04T06:53:23.030Z,10.4799
2023-05-04T06:54:31.084Z,10.5225
2023-05-04T06:55:39.108Z,10.6039
2023-05-04T06:56:47.159Z,10.7101
2023-05-04T06:57:55.210Z,10.7002
2023-05-04T06:59:03.297Z,10.6613
2023-05-04T07:00:11.376Z,10.6680
2023-05-04T07:01:19.326Z,10.7651
2023-05-04T07:02:27.492Z,10.8183
2023-05-04T07:03:35.473Z,10.8896
2023-05-04T07:04:43.775Z,10.8635
2023-05-04T07:05:51.636Z,10.9400
2023-05-04T07:06:59.743Z,11.0094
2023-05-04T07:08:07.738Z,11.0371
2023-05-04T07:09:15.776Z,11.1452
2023-05-04T07:10:23.866Z,11.2095
2023-05-04T07:11:31.854Z,11.2305
2023-05-04T07:12:40.237Z,11.1450
2023-05-04T07:13:48.163Z,11.1643
2023-05-04T07:14:56.122Z,11.1753
2023-05-04T07:16:04.165Z,11.2574
2023-05-04T07:17:12.103Z,11.2581
2023-05-04T07:18:20.185Z,11.2503
2023-05-04T07:19:28.422Z,11.3157
2023-05-04T07:20:36.388Z,11.4241
2023-05-04T07:21:44.564Z,11.5889
2023-05-04T07:22:52.534Z,11.5553
2023-05-04T07:24:00.590Z,11.4414
2023-05-04T07:25:08.645Z,11.2478
2023-05-04T07:26:16.624Z,11.3775
2023-05-04T07:27:24.731Z,11.4178
2023-05-04T07:28:32.806Z,11.4340
2023-05-04T07:29:40.925Z,11.3020
2023-05-04T07:30:48.799Z,11.3142
2023-05-04T07:31:56.860Z,11.4798
2023-05-04T07:33:04.919Z,11.5555
2023-05-04T07:34:13.076Z,11.6320
2023-05-04T07:35:21.172Z,11.7952
2023-05-04T07:36:29.258Z,11.8935
2023-05-04T07:37:37.356Z,11.9499
2023-05-04T07:38:45.389Z,11.9913
2023-05-04T07:39:53.387Z,12.0325
2023-05-04T07:41:01.432Z,12.0571
2023-05-04T07:42:09.510Z,12.1164
2023-05-04T07:43:17.549Z,12.1285
2023-05-04T07:44:25.702Z,12.1033
2023-05-04T07:45:33.550Z,11.8897
2023-05-04T07:46:41.832Z,11.7529
2023-05-04T07:47:50.120Z,11.7027
2023-05-04T07:48:57.815Z,11.9063
2023-05-04T07:50:06.263Z,11.8855
2023-05-04T07:51:14.000Z,11.9778
2023-05-04T07:52:22.046Z,11.9057
2023-05-04T07:53:30.189Z,11.9721
2023-05-04T07:54:38.146Z,11.8750
2023-05-04T07:55:46.179Z,11.9059
2023-05-04T07:56:54.265Z,11.8376
2023-05-04T07:58:02.334Z,11.9127
2023-05-04T07:59:10.323Z,12.1287
2023-05-04T08:00:18.274Z,12.2227
2023-05-04T08:01:26.337Z,11.9946
2023-05-04T08:02:34.547Z,11.9591
2023-05-04T08:03:42.577Z,12.1758
2023-05-04T08:04:50.625Z,12.2750
2023-05-04T08:05:58.688Z,12.3245
2023-05-04T08:07:06.782Z,12.5296
2023-05-04T08:08:14.789Z,12.6908
2023-05-04T08:09:22.961Z,12.6917
2023-05-04T08:10:30.943Z,12.5384
2023-05-04T08:11:38.934Z,12.7564
2023-05-04T08:12:47.089Z,12.9675
2023-05-04T08:13:55.051Z,13.2351
2023-05-04T08:15:03.285Z,13.7494
2023-05-04T08:16:11.009Z,14.5173
2023-05-04T08:17:19.132Z,14.9748
2023-05-04T08:18:27.308Z,15.4422
2023-05-04T08:19:35.357Z,15.6523
2023-05-04T08:20:43.391Z,15.9385
2023-05-04T08:21:51.510Z,16.1271
2023-05-04T08:22:59.562Z,16.4342
2023-05-04T08:24:07.565Z,16.9387
2023-05-04T08:25:15.738Z,17.4924
2023-05-04T08:26:23.750Z,17.7575
2023-05-04T08:27:31.794Z,17.7945
2023-05-04T08:28:39.825Z,17.7348
2023-05-04T08:29:47.860Z,17.4111
2023-05-04T08:30:55.866Z,17.4964
2023-05-04T08:32:03.945Z,17.7493
2023-05-04T08:33:12.062Z,17.9723
2023-05-04T08:34:19.961Z,17.8401
2023-05-04T08:35:28.116Z,17.6389
2023-05-04T08:36:36.254Z,17.3835
2023-05-04T08:37:44.308Z,16.9845
2023-05-04T08:38:52.350Z,16.7655
2023-05-04T08:40:00.398Z,16.6644
2023-05-04T08:41:08.537Z,16.5219
2023-05-04T08:42:16.496Z,16.3449
2023-05-04T08:43:24.609Z,16.1589
2023-05-04T08:44:32.590Z,16.0222
2023-05-04T08:45:40.761Z,15.9692
2023-05-04T08:46:48.608Z,15.8040
2023-05-04T08:47:56.718Z,15.7126
2023-05-04T08:49:04.699Z,15.6832
2023-05-04T08:50:12.894Z,15.6413
2023-05-04T08:51:20.929Z,15.3622
2023-05-04T08:52:28.977Z,15.0342
2023-05-04T08:53:37.169Z,15.0851
2023-05-04T08:54:45.084Z,14.6695
2023-05-04T08:55:53.158Z,14.7648
2023-05-04T08:57:01.282Z,14.9375
2023-05-04T08:58:09.280Z,15.0109
2023-05-04T08:59:17.271Z,15.0693
2023-05-04T09:00:25.435Z,15.1295
2023-05-04T09:01:33.436Z,15.2215
2023-05-04T09:02:41.496Z,15.2222
2023-05-04T09:03:49.590Z,14.9312
2023-05-04T09:04:57.590Z,14.9214
2023-05-04T09:06:05.537Z,15.0250
2023-05-04T09:07:13.574Z,14.8984
2023-05-04T09:08:21.733Z,15.0532
2023-05-04T09:09:29.828Z,15.2144
2023-05-04T09:10:37.843Z,15.2655
2023-05-04T09:11:46.026Z,14.9926
2023-05-04T09:12:54.016Z,14.9760
2023-05-04T09:14:02.240Z,15.1681
2023-05-04T09:15:10.195Z,15.2928
2023-05-04T09:16:18.174Z,15.3887
2023-05-04T09:17:26.358Z,15.4753
2023-05-04T09:18:34.337Z,15.6604
2023-05-04T09:19:42.213Z,15.5728
2023-05-04T09:20:50.243Z,15.5038
2023-05-04T09:21:58.286Z,15.6131
2023-05-04T09:23:06.422Z,15.8475
2023-05-04T09:24:14.509Z,15.9051
2023-05-04T09:25:22.680Z,15.9791
2023-05-04T09:26:30.616Z,16.0155
2023-05-04T09:27:38.709Z,15.9972
2023-05-04T09:28:46.769Z,15.9510
2023-05-04T09:29:54.919Z,15.5690
2023-05-04T09:31:02.920Z,15.8601
2023-05-04T09:32:11.031Z,16.0632
2023-05-04T09:33:18.822Z,16.1450
2023-05-04T09:34:26.879Z,16.1851
2023-05-04T09:35:34.996Z,16.1975
2023-05-04T09:36:42.993Z,16.3037
2023-05-04T09:37:51.191Z,16.2927
2023-05-04T09:38:59.286Z,16.3188
2023-05-04T09:40:07.323Z,16.4864
2023-05-04T09:41:15.384Z,16.6608
2023-05-04T09:42:23.473Z,16.8265
2023-05-04T09:43:31.434Z,16.8837
2023-05-04T09:44:39.541Z,16.6587
2023-05-04T09:45:47.596Z,16.6980
2023-05-04T09:46:55.765Z,16.3638
2023-05-04T09:48:03.666Z,16.5528
2023-05-04T09:49:11.588Z,16.6995
2023-05-04T09:50:20.959Z,16.7998
2023-05-04T09:51:27.704Z,17.0146
2023-05-04T09:52:35.894Z,17.2057
2023-05-04T09:53:43.945Z,17.2677
2023-05-04T09:54:51.981Z,17.3345
2023-05-04T09:56:02.506Z,17.3116
2023-05-04T09:57:13.058Z,17.3429
2023-05-04T09:58:20.948Z,17.4493
2023-05-04T09:59:29.123Z,17.5702
2023-05-04T10:00:37.152Z,17.4222
2023-05-04T10:01:45.198Z,17.5099
2023-05-04T10:02:53.159Z,17.9631
2023-05-04T10:04:01.174Z,18.4680
2023-05-04T10:05:09.272Z,19.3433
2023-05-04T10:06:17.419Z,20.2047
2023-05-04T10:07:25.469Z,21.1105
2023-05-04T10:08:33.535Z,22.0396
2023-05-04T10:09:41.588Z,22.6288
2023-05-04T10:10:49.661Z,23.2363
2023-05-04T10:11:58.875Z,24.1522
2023-05-04T10:13:10.938Z,24.9670
2023-05-04T10:14:18.690Z,25.1345
2023-05-04T10:15:26.797Z,25.1131
2023-05-04T10:16:34.738Z,25.6281
2023-05-04T10:17:42.745Z,26.3951
2023-05-04T10:18:50.844Z,26.7821
2023-05-04T10:19:58.963Z,26.8071
2023-05-04T10:21:07.047Z,27.3467
2023-05-04T10:22:15.097Z,27.6395
2023-05-04T10:23:24.063Z,28.2357
2023-05-04T10:24:31.190Z,28.6727
2023-05-04T10:25:39.271Z,28.9615
2023-05-04T10:26:47.365Z,29.4415
2023-05-04T10:27:55.604Z,29.5117
2023-05-04T10:29:03.490Z,29.3723
2023-05-04T10:30:11.768Z,29.1327
2023-05-04T10:31:19.510Z,29.6409
2023-05-04T10:32:27.625Z,30.0286
2023-05-04T10:33:35.599Z,30.5049
2023-05-04T10:34:43.696Z,30.8240
2023-05-04T10:35:51.858Z,30.6256
2023-05-04T10:36:59.910Z,31.0619
2023-05-04T10:38:08.006Z,31.3842
2023-05-04T10:39:16.054Z,31.5751
2023-05-04T10:40:24.177Z,31.8723
2023-05-04T10:41:32.236Z,32.3234
2023-05-04T10:42:40.282Z,31.8796
2023-05-04T10:43:48.345Z,31.4279
2023-05-04T10:44:56.355Z,31.0556
2023-05-04T10:46:04.373Z,31.1898
2023-05-04T10:47:12.524Z,31.4243
2023-05-04T10:48:20.533Z,31.1176
2023-05-04T10:49:28.773Z,30.1776
2023-05-04T10:50:36.816Z,30.5200
2023-05-04T10:51:49.473Z,29.9768
2023-05-04T10:52:59.951Z,30.3207
2023-05-04T10:54:10.847Z,30.7686
2023-05-04T10:55:18.721Z,30.9924
2023-05-04T10:56:27.058Z,30.9674
2023-05-04T10:57:34.915Z,31.0083
2023-05-04T10:58:42.832Z,29.8276
2023-05-04T10:59:50.979Z,29.2476
2023-05-04T11:00:59.084Z,29.9926
2023-05-04T11:02:07.186Z,29.8646
2023-05-04T11:03:15.523Z,30.2138
2023-05-04T11:04:23.295Z,30.4269
2023-05-04T11:05:31.416Z,30.1133
2023-05-04T11:06:39.420Z,29.5207
2023-05-04T11:07:47.434Z,29.1774
2023-05-04T11:08:55.578Z,29.7887
2023-05-04T11:10:03.794Z,29.1762
2023-05-04T11:11:11.999Z,28.8697
2023-05-04T11:12:19.635Z,28.1728
2023-05-04T11:13:27.755Z,27.7983
2023-05-04T11:14:35.756Z,27.4558
2023-05-04T11:15:43.995Z,26.9110
2023-05-04T11:16:52.094Z,26.1010
2023-05-04T11:18:00.095Z,25.4540
2023-05-04T11:19:08.126Z,25.0015
2023-05-04T11:20:16.225Z,24.3311
2023-05-04T11:21:24.237Z,24.1474
2023-05-04T11:22:32.383Z,23.7492
2023-05-04T11:23:40.359Z,23.8373
2023-05-04T11:24:48.481Z,23.6366
2023-05-04T11:25:56.638Z,23.7803
2023-05-04T11:27:04.489Z,23.3458
2023-05-04T11:28:14.320Z,23.3629
2023-05-04T11:29:25.577Z,23.5913
2023-05-04T11:30:33.749Z,22.9387
2023-05-04T11:31:41.654Z,22.5698
2023-05-04T11:32:49.862Z,22.5321
2023-05-04T11:33:57.801Z,22.4918
2023-05-04T11:35:06.074Z,22.3814
2023-05-04T11:36:13.951Z,22.2875
2023-05-04T11:37:21.967Z,22.2124
2023-05-04T11:38:30.031Z,22.0449
2023-05-04T11:39:38.133Z,21.8778
2023-05-04T11:40:46.118Z,21.6924
2023-05-04T11:41:54.351Z,21.2516
2023-05-04T11:43:02.177Z,21.2343
2023-05-04T11:44:10.320Z,21.2534
2023-05-04T11:45:18.468Z,21.2261
2023-05-04T11:46:26.521Z,21.2265
2023-05-04T11:47:34.537Z,21.1275
2023-05-04T11:48:42.570Z,20.9186
2023-05-04T11:49:50.770Z,20.7828
2023-05-04T11:50:58.725Z,20.5652
2023-05-04T11:52:06.782Z,20.6586
2023-05-04T11:53:14.814Z,21.4548
2023-05-04T11:54:22.931Z,22.0211
2023-05-04T11:55:30.906Z,23.1573
2023-05-04T11:56:38.942Z,24.5110
2023-05-04T11:57:46.977Z,25.9962
2023-05-04T11:58:55.329Z,27.1388
2023-05-04T12:00:03.280Z,27.9067
2023-05-04T12:01:11.388Z,28.3702
2023-05-04T12:02:19.383Z,27.8018
2023-05-04T12:03:32.545Z,27.8426
2023-05-04T12:04:40.789Z,27.9704
2023-05-04T12:05:48.453Z,28.4966
2023-05-04T12:06:56.741Z,29.2722
2023-05-04T12:08:04.539Z,29.1327
2023-05-04T12:09:12.518Z,28.6872
2023-05-04T12:10:20.554Z,28.6422
2023-05-04T12:11:28.731Z,28.9346
2023-05-04T12:12:36.962Z,30.1913
2023-05-04T12:13:44.940Z,30.6323
2023-05-04T12:14:53.110Z,30.7527
2023-05-04T12:16:01.020Z,30.4349
2023-05-04T12:17:09.098Z,29.6897
2023-05-04T12:18:17.213Z,28.8699
2023-05-04T12:19:25.248Z,28.7598
2023-05-04T12:20:33.367Z,28.7951
2023-05-04T12:21:41.483Z,29.0658
2023-05-04T12:22:49.303Z,29.4436
2023-05-04T12:23:57.406Z,29.9632
2023-05-04T12:25:05.549Z,30.0311
2023-05-04T12:26:13.594Z,30.1616
2023-05-04T12:27:21.742Z,30.0683
2023-05-04T12:28:29.849Z,30.1234
2023-05-04T12:29:37.828Z,30.4547
2023-05-04T12:30:45.918Z,30.7962
2023-05-04T12:31:54.034Z,30.2585
2023-05-04T12:33:02.107Z,31.0937
2023-05-04T12:34:10.217Z,31.2408
2023-05-04T12:35:18.160Z,31.0012
2023-05-04T12:36:26.198Z,31.5252
2023-05-04T12:37:34.192Z,31.6745
2023-05-04T12:38:42.282Z,32.2666
2023-05-04T12:39:50.333Z,32.4169
2023-05-04T12:40:58.599Z,31.7540
2023-05-04T12:42:06.561Z,31.4307
2023-05-04T12:43:14.596Z,31.1542
2023-05-04T12:44:22.786Z,31.5162
2023-05-04T12:45:30.735Z,32.2439
2023-05-04T12:46:38.911Z,32.9059
2023-05-04T12:47:46.956Z,31.0239
2023-05-04T12:48:55.066Z,30.3502
2023-05-04T12:50:03.071Z,30.7397
2023-05-04T12:51:11.297Z,31.9129
2023-05-04T12:52:19.086Z,31.9721
2023-05-04T12:53:27.236Z,32.4022
2023-05-04T12:54:35.356Z,32.9011
2023-05-04T12:55:43.553Z,32.4893
2023-05-04T12:56:51.703Z,33.2990
2023-05-04T12:57:59.643Z,32.6665
2023-05-04T12:59:07.736Z,31.9085
2023-05-04T13:00:15.815Z,30.5476
2023-05-04T13:01:23.932Z,29.9851
2023-05-04T13:02:31.969Z,29.6382
2023-05-04T13:03:40.240Z,30.3775
2023-05-04T13:04:48.067Z,30.3353
2023-05-04T13:05:56.164Z,31.3657
2023-05-04T13:07:04.277Z,32.0758
2023-05-04T13:08:12.155Z,32.4796
2023-05-04T13:09:20.275Z,32.7726
2023-05-04T13:10:28.432Z,32.9637
2023-05-04T13:11:36.484Z,32.5017
2023-05-04T13:12:46.122Z,32.7653
2023-05-04T13:13:52.716Z,31.1984
2023-05-04T13:15:00.709Z,29.5411
2023-05-04T13:16:08.859Z,30.2375
2023-05-04T13:17:16.883Z,30.9058
2023-05-04T13:18:24.872Z,31.4311
2023-05-04T13:19:33.046Z,30.2705
2023-05-04T13:20:41.212Z,29.8522
2023-05-04T13:21:49.018Z,30.3653
2023-05-04T13:22:58.424Z,30.7368
2023-05-04T13:24:05.190Z,29.7851
2023-05-04T13:25:13.339Z,30.1105
2023-05-04T13:26:21.436Z,30.0668
2023-05-04T13:27:29.526Z,30.3126
2023-05-04T13:28:39.263Z,31.2682
2023-05-04T13:29:50.541Z,31.6064
2023-05-04T13:30:58.607Z,30.6394
2023-05-04T13:32:06.601Z,29.1608
2023-05-04T13:33:27.832Z,28.9710
2023-05-04T13:34:27.560Z,30.0148
2023-05-04T13:35:35.596Z,29.6895
2023-05-04T13:36:43.657Z,30.4946
2023-05-04T13:37:51.889Z,30.4721
2023-05-04T13:39:00.001Z,30.7580
2023-05-04T13:40:08.078Z,31.0147
2023-05-04T13:41:16.072Z,30.4221
2023-05-04T13:42:24.164Z,30.3308
2023-05-04T13:43:32.382Z,30.1007
2023-05-04T13:44:40.335Z,28.9227
2023-05-04T13:45:48.310Z,27.5662
2023-05-04T13:46:56.495Z,28.0877
2023-05-04T13:48:04.599Z,27.7814
2023-05-04T13:49:12.464Z,28.1176
2023-05-04T13:50:20.499Z,28.6113
2023-05-04T13:51:28.545Z,28.2691
2023-05-04T13:52:36.737Z,27.4171
2023-05-04T13:53:44.812Z,27.1714
2023-05-04T13:54:52.952Z,27.9673